createdAt,value
2023-04-26T05:13:08.514Z,16.6
2023-04-26T05:18:42.168Z,16.5
2023-04-26T05:24:17.415Z,16.5
2023-04-26T05:29:52.712Z,16.5
2023-04-26T05:35:28.470Z,16.5
2023-04-26T05:41:04.312Z,16.5
2023-04-26T05:46:40.487Z,16.5
2023-04-26T05:52:17.494Z,16.5
2023-04-26T05:57:52.977Z,16.5
2023-04-26T06:03:29.142Z,16.6
2023-04-26T06:09:07.030Z,16.6
2023-04-26T06:14:42.641Z,16.7
2023-04-26T06:20:17.871Z,16.7
2023-04-26T06:25:53.837Z,16.8
2023-04-26T06:31:29.626Z,16.9
2023-04-26T06:37:07.003Z,17
2023-04-26T06:42:43.784Z,17.1
2023-04-26T06:48:19.147Z,17.1
2023-04-26T06:53:55.758Z,17.2
2023-04-26T06:59:31.485Z,17.2
2023-04-26T07:05:06.605Z,17.2
2023-04-26T07:11:05.746Z,17.4
2023-04-26T07:16:39.435Z,17.4
2023-04-26T07:22:17.067Z,17.6
2023-04-26T07:27:53.890Z,17.7
2023-04-26T07:33:31.025Z,17.8
2023-04-26T07:39:09.514Z,17.9
2023-04-26T07:44:45.874Z,18
2023-04-26T07:50:22.084Z,18.1
2023-04-26T07:56:02.064Z,18.1
2023-04-26T08:01:37.867Z,18.2
2023-04-26T08:07:14.785Z,18.2
2023-04-26T08:12:50.060Z,18.2
2023-04-26T08:18:27.613Z,18.9
2023-04-26T08:24:05.088Z,19.4
2023-04-26T08:29:40.780Z,19.6
2023-04-26T08:35:16.627Z,19.9
2023-04-26T08:40:52.210Z,20.2
2023-04-26T08:46:28.051Z,19.9
2023-04-26T08:52:04.560Z,20.1
2023-04-26T08:57:41.215Z,20.2
2023-04-26T09:03:17.687Z,20.8
2023-04-26T09:08:55.034Z,21.4
2023-04-26T09:14:30.633Z,20.9
2023-04-26T09:20:07.799Z,21.7
2023-04-26T09:25:44.790Z,21.7
2023-04-26T09:31:21.759Z,21.8
2023-04-26T09:36:58.706Z,22.4
2023-04-26T09:42:34.656Z,22.6
2023-04-26T09:48:10.424Z,22.2
2023-04-26T09:53:46.265Z,21.9
2023-04-26T09:59:22.712Z,22.5
2023-04-26T10:04:58.639Z,22.8
2023-04-26T10:10:57.867Z,23
2023-04-26T10:16:30.661Z,22.7
2023-04-26T10:22:07.542Z,22.7
2023-04-26T10:27:42.695Z,23.3
2023-04-26T10:33:18.168Z,23.1
2023-04-26T10:38:55.775Z,22.9
2023-04-26T10:44:31.202Z,23.2
2023-04-26T10:50:06.848Z,23.8
2023-04-26T10:55:43.362Z,23.6
2023-04-26T11:01:20.400Z,22.8
2023-04-26T11:06:56.660Z,23.4
2023-04-26T11:12:32.995Z,24.3
2023-04-26T11:18:08.920Z,24.9
2023-04-26T11:23:44.474Z,23.8
2023-04-26T11:29:20.317Z,24.2
2023-04-26T11:34:56.207Z,24.6
2023-04-26T11:40:32.960Z,24.5
2023-04-26T11:46:08.798Z,25.4
2023-04-26T11:51:46.499Z,27
2023-04-26T11:57:22.457Z,25.9
2023-04-26T12:03:00.099Z,27
2023-04-26T12:08:37.653Z,26.2
2023-04-26T12:14:13.153Z,27.3
2023-04-26T12:19:48.746Z,26.7
2023-04-26T12:25:24.006Z,27.1
2023-04-26T12:31:00.386Z,27.4
2023-04-26T12:36:36.856Z,27
2023-04-26T12:42:12.291Z,28.9
2023-04-26T12:47:48.525Z,27.9
2023-04-26T12:53:25.015Z,27
2023-04-26T12:59:00.401Z,26.1
2023-04-26T13:04:38.344Z,27.8
2023-04-26T13:10:19.630Z,28.8
2023-04-26T13:15:55.285Z,27
2023-04-26T13:21:31.472Z,26.4
2023-04-26T13:27:07.973Z,26.3
2023-04-26T13:32:44.276Z,27.4
2023-04-26T13:38:22.683Z,27.8
2023-04-26T13:44:01.459Z,28.1
2023-04-26T13:49:38.340Z,27.6
2023-04-26T13:55:15.077Z,27.7
2023-04-26T14:00:51.007Z,28.4
2023-04-26T14:06:26.029Z,26.4
2023-04-26T14:12:08.263Z,25.9
2023-04-26T14:17:46.453Z,25.4
2023-04-26T14:23:22.785Z,26.8
2023-04-26T14:28:59.554Z,26.7
2023-04-26T14:34:35.533Z,26.5
2023-04-26T14:40:11.353Z,33
2023-04-26T14:45:47.068Z,35.8
2023-04-26T14:51:24.816Z,30
2023-04-26T14:57:00.159Z,29.5
2023-04-26T15:02:36.104Z,31.1
2023-04-26T15:08:15.992Z,31.8
2023-04-26T15:13:53.794Z,29.5
2023-04-26T15:19:29.373Z,28.5
2023-04-26T15:25:04.391Z,29.3
2023-04-26T15:30:40.278Z,31
2023-04-26T15:36:15.696Z,28.2
2023-04-26T15:41:52.625Z,28.9
2023-04-26T15:47:27.946Z,30.6
2023-04-26T15:53:04.540Z,29.5
2023-04-26T15:58:41.674Z,31.1
2023-04-26T16:04:19.062Z,31.9
2023-04-26T16:09:57.933Z,30
2023-04-26T16:15:33.993Z,26.9
2023-04-26T16:21:08.850Z,26
2023-04-26T16:26:45.106Z,25.7
2023-04-26T16:32:20.552Z,27.2
2023-04-26T16:37:56.603Z,28
2023-04-26T16:43:32.036Z,26.7
2023-04-26T16:49:07.831Z,26.6
2023-04-26T16:54:44.015Z,26
2023-04-26T17:00:19.222Z,25.6
2023-04-26T17:05:55.511Z,24.9
2023-04-26T17:11:30.287Z,24.4
2023-04-26T17:17:06.037Z,23.4
2023-04-26T17:22:42.511Z,23.3
2023-04-26T17:28:17.691Z,23.2
2023-04-26T17:33:54.567Z,23.4
2023-04-26T17:39:30.890Z,23.8
2023-04-26T17:45:07.467Z,23.3
2023-04-26T17:50:51.390Z,22.8
2023-04-26T17:56:39.786Z,22.3
2023-04-26T18:02:16.498Z,21.9
2023-04-26T18:07:53.809Z,21.7
2023-04-26T18:13:30.155Z,21.6
2023-04-26T18:19:06.100Z,21.2
2023-04-26T18:24:41.108Z,20.8
2023-04-26T18:30:17.928Z,20.6
2023-04-26T18:35:53.670Z,20.5
2023-04-26T18:41:29.791Z,20.3
2023-04-26T18:47:05.869Z,20.2
2023-04-26T18:52:40.946Z,20.1
2023-04-26T18:58:16.693Z,20
2023-04-26T19:03:52.673Z,19.7
2023-04-26T19:09:33.367Z,19.7
2023-04-26T19:15:35.559Z,19.6
2023-04-26T19:21:12.421Z,19.7
2023-04-26T19:26:49.316Z,19.6
2023-04-26T19:32:24.342Z,19.5
2023-04-26T19:37:59.872Z,19.5
2023-04-26T19:43:35.641Z,19.4
2023-04-26T19:49:11.854Z,19.1
2023-04-26T19:54:48.061Z,19
2023-04-26T20:00:23.978Z,18.8
2023-04-26T20:06:01.620Z,18.9
2023-04-26T20:12:00.326Z,18.8
2023-04-26T20:17:34.261Z,18.8
2023-04-26T20:23:10.034Z,18.7
2023-04-26T20:28:46.590Z,18.5
2023-04-26T20:34:22.497Z,18.6
2023-04-26T20:39:58.296Z,18.6
2023-04-26T20:45:34.669Z,18.5
2023-04-26T20:51:09.675Z,18.5
2023-04-26T20:56:45.094Z,18.4
2023-04-26T21:02:20.940Z,18.4
2023-04-26T21:08:00.884Z,18.3
2023-04-26T21:13:36.622Z,18.7
